Time,TemperatureF,DewpointF,PressureIn,WindDirection,WindDirectionDegrees,WindSpeedMPH,WindSpeedGustMPH,Humidity,HourlyPrecipIn,Conditions,Clouds,dailyrainin,SoftwareType,DateUTC
2013-10-03 00:23:00,69.0,65.0,29.84,South,189,2.0,6.0,87,0.00,,,0.00,,2013-10-03 05:23:00,
2013-10-03 00:43:00,69.0,65.0,29.85,SSE,161,2.0,6.0,88,0.00,,,0.00,,2013-10-03 05:43:00,
2013-10-03 00:52:00,69.0,65.0,29.84,South,184,2.0,5.0,88,0.00,,,0.00,,2013-10-03 05:52:00,
2013-10-03 01:12:00,68.0,65.0,29.83,SSE,157,2.0,6.0,89,0.00,,,0.00,,2013-10-03 06:12:00,
2013-10-03 01:22:00,68.0,65.0,29.82,SSE,155,3.0,7.0,90,0.00,,,0.00,,2013-10-03 06:22:00,
2013-10-03 01:42:00,68.0,65.0,29.82,SE,144,2.0,7.0,90,0.00,,,0.00,,2013-10-03 06:42:00,
2013-10-03 01:52:00,68.0,65.0,29.81,SW,215,2.0,7.0,90,0.00,,,0.00,,2013-10-03 06:52:00,
2013-10-03 02:11:00,69.0,66.0,29.82,SSE,159,4.0,9.0,90,0.00,,,0.00,,2013-10-03 07:11:00,
2013-10-03 02:22:00,69.0,66.0,29.82,South,185,2.0,9.0,89,0.00,,,0.00,,2013-10-03 07:22:00,
2013-10-03 02:52:00,70.0,66.0,29.83,South,173,2.0,8.0,88,0.00,,,0.00,,2013-10-03 07:52:00,
2013-10-03 03:22:00,71.0,67.0,29.82,SSW,205,3.0,9.0,86,0.00,,,0.00,,2013-10-03 08:22:00,
2013-10-03 03:42:00,71.0,67.0,29.82,South,177,3.0,7.0,86,0.00,,,0.00,,2013-10-03 08:42:00,
2013-10-03 03:52:00,71.0,67.0,29.82,South,169,1.0,3.0,86,0.00,,,0.00,,2013-10-03 08:52:00,
2013-10-03 04:22:00,66.0,60.0,29.86,NE,44,6.0,13.0,81,0.00,,,0.00,,2013-10-03 09:22:00,
2013-10-03 04:53:00,62.0,59.0,29.85,East,82,3.0,14.0,91,0.01,,,0.01,,2013-10-03 09:53:00,
2013-10-03 05:23:00,60.0,59.0,29.87,East,88,4.0,8.0,95,0.79,,,0.79,,2013-10-03 10:23:00,
2013-10-03 05:52:00,60.0,59.0,29.88,SE,134,4.0,9.0,96,1.11,,,1.12,,2013-10-03 10:52:00,
2013-10-03 06:12:00,60.0,59.0,29.88,East,84,6.0,11.0,96,0.90,,,1.18,,2013-10-03 11:12:00,
2013-10-03 06:23:00,60.0,59.0,29.89,SSE,158,1.0,3.0,96,0.41,,,1.21,,2013-10-03 11:23:00,
2013-10-03 06:52:00,60.0,59.0,29.86,East,86,6.0,12.0,97,0.23,,,1.36,,2013-10-03 11:52:00,
2013-10-03 07:22:00,60.0,59.0,29.88,ENE,77,5.0,10.0,97,0.16,,,1.37,,2013-10-03 12:22:00,
2013-10-03 07:52:00,60.0,59.0,29.86,ESE,103,5.0,9.0,97,0.02,,,1.38,,2013-10-03 12:52:00,
2013-10-03 08:11:00,60.0,59.0,29.85,East,88,6.0,10.0,97,0.01,,,1.38,,2013-10-03 13:11:00,
2013-10-03 08:22:00,61.0,60.0,29.85,East,100,4.0,9.0,97,0.01,,,1.38,,2013-10-03 13:22:00,
2013-10-03 08:52:00,61.0,60.0,29.85,ESE,117,4.0,9.0,97,0.00,,,1.38,,2013-10-03 13:52:00,
2013-10-03 09:22:00,62.0,61.0,29.85,ESE,122,4.0,11.0,97,0.00,,,1.38,,2013-10-03 14:22:00,
2013-10-03 09:52:00,63.0,62.0,29.84,SE,130,6.0,14.0,97,0.00,,,1.38,,2013-10-03 14:52:00,
2013-10-03 10:22:00,65.0,63.0,29.84,ESE,120,7.0,11.0,92,0.00,,,1.38,,2013-10-03 15:22:00,
2013-10-03 10:54:00,68.0,64.0,29.84,ESE,109,6.0,16.0,88,0.00,,,1.38,,2013-10-03 15:54:00,
2013-10-03 11:23:00,70.0,65.0,29.82,East,96,7.0,16.0,84,0.00,,,1.38,,2013-10-03 16:23:00,
2013-10-03 11:42:00,71.0,65.0,29.82,SSE,161,9.0,16.0,82,0.00,,,1.38,,2013-10-03 16:42:00,
2013-10-03 11:53:00,72.0,66.0,29.81,SE,140,6.0,13.0,81,0.00,,,1.38,,2013-10-03 16:53:00,
2013-10-03 12:22:00,73.0,66.0,29.80,East,101,6.0,13.0,80,0.00,,,1.38,,2013-10-03 17:22:00,
2013-10-03 12:42:00,74.0,67.0,29.79,SE,126,6.0,15.0,80,0.01,,,1.39,,2013-10-03 17:42:00,
2013-10-03 12:52:00,75.0,68.0,29.78,South,173,6.0,13.0,80,0.01,,,1.39,,2013-10-03 17:52:00,
2013-10-03 13:12:00,75.0,68.0,29.78,SE,146,7.0,16.0,79,0.01,,,1.39,,2013-10-03 18:12:00,
2013-10-03 13:22:00,74.0,67.0,29.77,SSE,159,6.0,13.0,80,0.01,,,1.39,,2013-10-03 18:22:00,
2013-10-03 13:52:00,74.0,68.0,29.75,SE,126,5.0,12.0,83,0.00,,,1.39,,2013-10-03 18:52:00,
2013-10-03 14:22:00,77.0,69.0,29.72,SSE,154,6.0,16.0,77,0.00,,,1.39,,2013-10-03 19:22:00,
2013-10-03 14:52:00,78.0,71.0,29.71,SSE,166,7.0,15.0,78,0.00,,,1.39,,2013-10-03 19:52:00,
2013-10-03 15:11:00,78.0,70.0,29.71,SW,219,5.0,12.0,77,0.00,,,1.39,,2013-10-03 20:11:00,
2013-10-03 15:21:00,80.0,71.0,29.71,South,190,4.0,13.0,73,0.00,,,1.39,,2013-10-03 20:21:00,
2013-10-03 15:42:00,82.0,70.0,29.70,South,188,7.0,14.0,68,0.00,,,1.39,,2013-10-03 20:42:00,
2013-10-03 15:52:00,82.0,70.0,29.70,South,191,6.0,15.0,67,0.00,,,1.39,,2013-10-03 20:52:00,
2013-10-03 16:21:00,84.0,70.0,29.70,SSE,165,6.0,16.0,62,0.00,,,1.39,,2013-10-03 21:21:00,
2013-10-03 16:54:00,82.0,69.0,29.70,SSW,212,4.0,12.0,64,0.00,,,1.39,,2013-10-03 21:54:00,
2013-10-03 17:13:00,84.0,69.0,29.69,SSW,201,8.0,13.0,61,0.00,,,1.39,,2013-10-03 22:13:00,
2013-10-03 17:23:00,84.0,70.0,29.69,SE,146,5.0,12.0,62,0.00,,,1.39,,2013-10-03 22:23:00,
2013-10-03 17:43:00,84.0,70.0,29.69,South,182,5.0,13.0,63,0.00,,,1.39,,2013-10-03 22:43:00,
2013-10-03 17:54:00,84.0,70.0,29.69,South,183,5.0,12.0,64,0.00,,,1.39,,2013-10-03 22:54:00,
2013-10-03 18:22:00,83.0,70.0,29.70,South,169,2.0,9.0,66,0.00,,,1.39,,2013-10-03 23:22:00,
2013-10-03 18:52:00,81.0,70.0,29.69,SSE,154,1.0,4.0,70,0.00,,,1.39,,2013-10-03 23:52:00,
2013-10-03 19:12:00,80.0,70.0,29.69,SE,146,1.0,5.0,71,0.00,,,1.39,,2013-10-04 00:12:00,
2013-10-03 19:22:00,79.0,70.0,29.70,SE,139,1.0,4.0,73,0.00,,,1.39,,2013-10-04 00:22:00,
2013-10-03 19:42:00,77.0,69.0,29.70,SE,128,1.0,4.0,76,0.00,,,1.39,,2013-10-04 00:42:00,
2013-10-03 19:52:00,76.0,69.0,29.70,SSE,153,1.0,5.0,78,0.00,,,1.39,,2013-10-04 00:52:00,
2013-10-03 20:12:00,76.0,69.0,29.70,SE,144,3.0,7.0,79,0.00,,,1.39,,2013-10-04 01:12:00,
2013-10-03 20:22:00,76.0,69.0,29.71,SE,124,2.0,7.0,80,0.00,,,1.39,,2013-10-04 01:22:00,
2013-10-03 20:52:00,75.0,69.0,29.72,SE,142,2.0,8.0,81,0.00,,,1.39,,2013-10-04 01:52:00,
2013-10-03 21:22:00,75.0,69.0,29.72,SE,133,1.0,7.0,82,0.00,,,1.39,,2013-10-04 02:22:00,
2013-10-03 21:52:00,75.0,69.0,29.71,SSE,164,2.0,6.0,82,0.00,,,1.39,,2013-10-04 02:52:00,
2013-10-03 22:22:00,74.0,68.0,29.71,SSE,158,3.0,7.0,82,0.00,,,1.39,,2013-10-04 03:22:00,
2013-10-03 22:44:00,74.0,68.0,29.71,SSE,161,3.0,10.0,83,0.00,,,1.39,,2013-10-04 03:44:00,
2013-10-03 23:00:00,73.0,68.0,29.70,South,171,3.0,8.0,84,0.00,,,1.39,,2013-10-04 04:00:00,